Aérodrome :
LOGIN :

S'inscrire | Disclaimer

   EN    FR    IT 

 










Légende :    VFR   VFR Marginal   IFR   IFR Intensif   IFR Très Intensif
Visi : 
Plafond : 
>= 8 km
>= 3000ft
5 à 8 km
1000 à 3000 ft
1500m à 5 km
500 à 1000 ft
800 à 1500m
200 à 500 ft
< 800m
< 200 ft
Symboles :   Orages  Brouillard  Fortes neiges  Fortes précipitations  Vent > 20 kt
SIGMETs :   Divers  Orages  Givrage  Turbulence  Onde Orograph.  Cendres Volcan.






- Altitude de l'aérodrome : 82 ft
- Code IATA : QIE


LFMI - Istres

DERNIER METAR :
  • 280530Z AUTO 09011KT 9999 BKN034/// BKN043/// OVC054/// //////TCU 11/07 Q1015 TEMPO 09015G25KT 4000 TSRA SCT025CB

METARs EXPIRÉS :
  • 280500Z AUTO 10012KT 9999 FEW030 BKN047 OVC058 12/07 Q1016 NOSIG
  • 280300Z AUTO 09012KT CAVOK 12/06 Q1017 NOSIG

TAF TAF LFMI
Valide du 28 à 03h jusqu'au 29 à 03h UTC


280200Z 2803/2903 10010KT CAVOK TX13/2812Z TN08/2806Z
TEMPO 2803/2807 -RA
TEMPO 2807/2812 09015G25KT 4000 TSRA SCT025CB
TEMPO 2812/2816 01015G25KT 2000 RA BKN012
BECMG 2818/2820 34005KT



MET'MAP, la Météo Aéronautique d'un coup d'oeil ! - Copyright ORBIFLY Décembre 2007 - Disclaimer

ORBIFLY MET'MAP TEAM :

Programmation & Développement : Alexandra Zaïnal
Sur une idée originale de : Baudouin d'Aumeries
Soutien technique & logistique : Manuel Goepfert
Assistance : Marc-Olivier Méhu




SOURCES & CREDITS :

   NOAA